Time;durP1;ratioP1;P1;durP2;ratioP2;P2;SDS_P1;SDS_P2;PMS_P1;PMS_P2;Temp;Humidity;BMP_temperature;BMP_pressure;BME280_temperature;BME280_humidity;BME280_pressure;Samples;Min_cycle;Max_cycle;Signal;HPM_P1;HPM_P2
2021/06/11 00:00:37;;;;;;;4.40;2.60;;;;;;;14.65;88.85;100910.81;5957747;23;20003;-85
2021/06/11 00:03:03;;;;;;;5.78;2.33;;;;;;;14.62;88.95;100903.09;5957863;23;20035;-86
2021/06/11 00:05:28;;;;;;;4.85;2.90;;;;;;;14.55;89.21;100905.75;5980978;23;20015;-85
2021/06/11 00:07:54;;;;;;;7.68;2.85;;;;;;;14.63;89.61;100929.09;5957189;23;20015;-86
2021/06/11 00:10:19;;;;;;;3.72;2.70;;;;;;;14.52;90.15;100911.53;5957839;23;20071;-82
2021/06/11 00:12:45;;;;;;;5.13;3.00;;;;;;;14.43;90.25;100908.13;5979384;23;20032;-83
2021/06/11 00:15:11;;;;;;;6.45;2.47;;;;;;;14.50;90.96;100916.28;5957201;23;20004;-83
2021/06/11 00:17:37;;;;;;;4.05;2.58;;;;;;;14.46;90.85;100920.44;5978152;23;20637;-83
2021/06/11 00:20:05;;;;;;;5.53;2.58;;;;;;;14.33;91.31;100901.41;5980573;23;20010;-84
2021/06/11 00:22:30;;;;;;;5.00;2.15;;;;;;;14.33;91.45;100921.16;5958607;23;20011;-84
2021/06/11 00:24:56;;;;;;;4.65;2.80;;;;;;;14.28;91.64;100913.63;5980687;23;20003;-84
2021/06/11 00:27:21;;;;;;;4.68;2.60;;;;;;;14.25;92.05;100910.50;5955699;23;20012;-84
2021/06/11 00:29:47;;;;;;;6.20;3.25;;;;;;;14.27;92.07;100921.97;5958228;23;20013;-83
2021/06/11 00:32:12;;;;;;;5.15;3.55;;;;;;;14.25;92.28;100924.03;5979290;23;20016;-84
2021/06/11 00:34:38;;;;;;;5.60;3.50;;;;;;;14.24;92.41;100923.19;5955859;23;20643;-84
2021/06/11 00:37:04;;;;;;;4.32;2.90;;;;;;;14.17;92.78;100913.34;5957547;23;20070;-84
2021/06/11 00:39:29;;;;;;;4.72;2.92;;;;;;;14.20;92.58;100912.94;5955945;23;20012;-84
2021/06/11 00:41:59;;;;;;;5.38;3.10;;;;;;;14.18;92.62;100925.84;5979502;23;20007;-84
2021/06/11 00:44:25;;;;;;;5.53;3.63;;;;;;;14.12;92.51;100915.81;5956729;23;20000;-85
2021/06/11 00:46:50;;;;;;;4.90;3.00;;;;;;;14.18;92.92;100923.13;5955660;23;20019;-83
2021/06/11 00:49:16;;;;;;;4.63;3.05;;;;;;;14.13;93.04;100920.16;5978217;23;20210;-85
2021/06/11 00:51:44;;;;;;;4.22;2.60;;;;;;;14.08;92.85;100910.78;5957227;23;20023;-85
2021/06/11 00:54:10;;;;;;;4.45;3.10;;;;;;;14.14;93.01;100921.84;5960571;23;20357;-85
2021/06/11 00:56:35;;;;;;;4.85;2.60;;;;;;;14.12;93.34;100918.50;5980006;23;20023;-84
2021/06/11 00:59:01;;;;;;;4.35;3.08;;;;;;;14.05;93.38;100923.84;5955334;23;20037;-84
2021/06/11 01:01:26;;;;;;;5.45;2.67;;;;;;;14.03;93.47;100931.34;5955122;23;20019;-83
2021/06/11 01:03:52;;;;;;;4.40;2.40;;;;;;;14.10;93.71;100923.25;5956603;23;20012;-83
2021/06/11 01:06:18;;;;;;;4.45;2.53;;;;;;;14.10;93.61;100943.03;5956292;23;20019;-83
2021/06/11 01:08:43;;;;;;;4.70;3.08;;;;;;;14.08;93.11;100929.72;5955618;23;20011;-85
2021/06/11 01:11:12;;;;;;;4.75;2.45;;;;;;;14.03;93.69;100921.34;5982449;23;20012;-85
2021/06/11 01:13:37;;;;;;;4.03;2.95;;;;;;;14.02;93.85;100933.19;5956655;23;20016;-85
2021/06/11 01:16:03;;;;;;;3.75;2.50;;;;;;;14.03;93.72;100937.56;5980405;23;20011;-82
2021/06/11 01:18:28;;;;;;;4.35;3.10;;;;;;;13.88;93.85;100915.19;5955464;23;20004;-83
2021/06/11 01:20:54;;;;;;;4.13;2.50;;;;;;;13.95;93.65;100921.50;5954098;23;20031;-84
2021/06/11 01:23:28;;;;;;;3.28;2.55;;;;;;;14.01;93.85;100942.34;5958235;23;20017;-84
2021/06/11 01:26:06;;;;;;;4.75;3.30;;;;;;;13.93;93.81;100931.66;5978944;23;20035;-83
2021/06/11 01:28:32;;;;;;;3.85;3.25;;;;;;;13.95;94.05;100942.28;5978594;23;20012;-83
2021/06/11 01:30:58;;;;;;;4.10;3.70;;;;;;;13.90;94.03;100932.03;5957333;23;20008;-83
2021/06/11 01:33:27;;;;;;;5.20;4.07;;;;;;;13.91;94.20;100933.72;5981888;23;20008;-85
2021/06/11 01:35:58;;;;;;;4.07;3.58;;;;;;;13.89;94.02;100929.53;5954201;23;20015;-81
2021/06/11 01:38:27;;;;;;;5.50;3.97;;;;;;;13.84;94.39;100930.13;5954250;23;20007;-84
2021/06/11 01:40:54;;;;;;;6.03;3.83;;;;;;;13.89;94.35;100938.47;5956251;23;20008;-84
2021/06/11 01:43:21;;;;;;;5.10;4.60;;;;;;;13.82;94.27;100929.47;5955084;23;20539;-82
2021/06/11 01:45:46;;;;;;;4.55;3.70;;;;;;;13.77;94.55;100926.50;5956771;23;20018;-85
2021/06/11 01:48:13;;;;;;;5.43;3.60;;;;;;;13.79;94.43;100936.09;5977352;23;20012;-84
2021/06/11 01:50:40;;;;;;;10.63;5.18;;;;;;;13.84;94.61;100957.16;5981448;23;20744;-86
2021/06/11 01:53:05;;;;;;;5.07;3.65;;;;;;;13.81;94.69;100950.25;5982662;23;20004;-83
2021/06/11 01:55:33;;;;;;;4.93;4.10;;;;;;;13.82;94.79;100956.50;5957915;23;20007;-85
2021/06/11 01:58:00;;;;;;;4.68;3.75;;;;;;;13.82;94.87;100954.63;5955502;23;20011;-85
2021/06/11 02:00:25;;;;;;;6.15;4.28;;;;;;;13.76;94.78;100951.84;5955787;23;20050;-86
2021/06/11 02:02:51;;;;;;;4.40;3.42;;;;;;;13.78;94.85;100955.19;5957160;23;20011;-84
2021/06/11 02:05:17;;;;;;;5.35;4.82;;;;;;;13.75;94.74;100952.88;5979528;23;20061;-83
2021/06/11 02:07:45;;;;;;;6.65;3.83;;;;;;;13.74;94.89;100960.16;5979135;23;20189;-86
2021/06/11 02:10:11;;;;;;;5.00;3.80;;;;;;;13.54;94.87;100935.59;5982012;23;20115;-83
2021/06/11 02:12:37;;;;;;;4.28;3.45;;;;;;;13.75;95.23;100961.00;5957557;23;20044;-83
2021/06/11 02:15:05;;;;;;;4.88;4.22;;;;;;;13.75;95.04;100969.09;5981071;23;20038;-83
2021/06/11 02:17:31;;;;;;;5.10;3.50;;;;;;;13.72;95.12;100964.09;5958074;23;20007;-82
2021/06/11 02:19:57;;;;;;;6.65;2.90;;;;;;;13.73;94.68;100973.84;5957038;23;20019;-82
2021/06/11 02:22:23;;;;;;;3.70;2.95;;;;;;;13.72;94.88;100975.72;5957603;23;20007;-84
2021/06/11 02:24:48;;;;;;;3.80;3.08;;;;;;;13.70;95.20;100960.72;5957631;23;20378;-82
2021/06/11 02:27:14;;;;;;;4.63;2.70;;;;;;;13.69;95.09;100964.47;5958463;23;20003;-84
2021/06/11 02:29:39;;;;;;;3.63;2.38;;;;;;;13.66;94.96;100959.44;5958834;23;20011;-85
2021/06/11 02:32:06;;;;;;;7.00;2.45;;;;;;;13.68;94.89;100958.22;5980005;23;20035;-84
2021/06/11 02:34:32;;;;;;;3.40;2.20;;;;;;;13.67;95.09;100956.53;5980667;23;20073;-84
2021/06/11 02:36:58;;;;;;;3.20;2.70;;;;;;;13.71;95.34;100959.72;5956590;23;20018;-82
2021/06/11 02:39:23;;;;;;;2.55;1.80;;;;;;;13.67;95.08;100966.50;5979349;23;20801;-84
2021/06/11 02:41:52;;;;;;;2.88;2.10;;;;;;;13.64;95.07;100962.34;5957161;23;20012;-82
2021/06/11 02:44:19;;;;;;;4.28;2.03;;;;;;;13.62;95.14;100967.91;5982419;23;20367;-84
2021/06/11 02:46:55;;;;;;;3.35;2.00;;;;;;;13.49;95.02;100954.25;5981384;23;20011;-82
2021/06/11 02:49:27;;;;;;;3.00;2.22;;;;;;;13.63;94.92;100983.13;5957253;23;20080;-83
2021/06/11 02:51:57;;;;;;;2.55;1.98;;;;;;;13.58;94.87;100972.03;5957824;23;20027;-85
2021/06/11 02:54:25;;;;;;;3.33;2.17;;;;;;;13.61;94.86;100979.75;5957173;23;20011;-84
2021/06/11 02:56:58;;;;;;;4.82;2.22;;;;;;;13.57;94.86;100974.91;5961301;23;20442;-84
2021/06/11 02:59:26;;;;;;;4.43;2.75;;;;;;;13.62;94.98;100988.69;5956457;23;20056;-85
2021/06/11 03:01:56;;;;;;;3.63;2.25;;;;;;;13.57;94.59;100986.56;5980248;23;20090;-85
2021/06/11 03:04:23;;;;;;;5.93;2.65;;;;;;;13.57;94.90;100993.81;5980278;23;20008;-84
2021/06/11 03:06:51;;;;;;;4.88;2.90;;;;;;;13.46;94.65;100970.84;5955815;23;20016;-85
2021/06/11 03:09:20;;;;;;;4.05;2.90;;;;;;;13.51;94.63;100983.78;5955701;23;20438;-84
2021/06/11 03:11:47;;;;;;;5.70;2.78;;;;;;;13.40;94.44;100975.16;5954567;23;20008;-82
2021/06/11 03:14:12;;;;;;;5.55;3.03;;;;;;;13.43;94.16;100981.19;5979911;23;20423;-85
2021/06/11 03:16:41;;;;;;;6.53;3.50;;;;;;;13.45;94.44;100996.19;5958479;23;20012;-83
2021/06/11 03:19:10;;;;;;;5.95;3.35;;;;;;;13.44;94.27;100981.00;5956233;23;20004;-83
2021/06/11 03:22:15;;;;;;;8.30;3.83;;;;;;;13.48;94.31;100989.59;5958397;23;20349;-86
2021/06/11 03:24:52;;;;;;;10.40;4.03;;;;;;;13.45;94.34;100987.25;5926005;23;20433;-83
2021/06/11 03:27:24;;;;;;;6.75;3.33;;;;;;;13.44;93.97;100997.19;5983399;23;20018;-81
2021/06/11 03:29:57;;;;;;;8.98;4.15;;;;;;;13.38;93.87;100990.69;5980546;23;20139;-85
2021/06/11 03:32:26;;;;;;;8.18;3.90;;;;;;;13.36;93.51;100992.78;5959824;23;20011;-84
2021/06/11 03:34:52;;;;;;;7.95;4.22;;;;;;;13.32;92.96;100999.56;5960934;23;20007;-83
2021/06/11 03:37:19;;;;;;;8.50;4.32;;;;;;;13.17;92.45;100980.63;5959892;23;20016;-85
2021/06/11 03:39:48;;;;;;;8.88;3.70;;;;;;;13.22;92.23;101006.25;5957332;23;20014;-82
2021/06/11 03:42:13;;;;;;;8.85;4.55;;;;;;;13.10;91.39;101001.31;5982674;23;20008;-84
2021/06/11 03:44:44;;;;;;;10.23;4.88;;;;;;;13.06;90.72;101007.28;5980552;23;20422;-84
2021/06/11 03:47:11;;;;;;;12.75;5.47;;;;;;;13.06;91.20;101020.78;5956155;23;20088;-83
2021/06/11 03:49:37;;;;;;;12.43;5.10;;;;;;;12.98;91.02;101019.00;5979396;23;20011;-86
2021/06/11 03:52:03;;;;;;;13.00;4.78;;;;;;;12.98;91.46;101024.41;5958293;23;19999;-83
2021/06/11 03:54:29;;;;;;;12.70;5.22;;;;;;;12.98;91.30;101029.78;5957604;23;20015;-83
2021/06/11 03:56:55;;;;;;;10.98;4.07;;;;;;;12.97;91.29;101030.81;5981457;23;20004;-83
2021/06/11 03:59:22;;;;;;;10.32;4.68;;;;;;;12.94;91.06;101018.53;5955741;23;20115;-84
2021/06/11 04:01:49;;;;;;;11.68;5.40;;;;;;;12.93;91.03;101016.00;5957798;23;20041;-84
2021/06/11 04:04:15;;;;;;;16.02;4.80;;;;;;;12.95;90.84;101019.38;5957939;23;20003;-85
2021/06/11 04:06:52;;;;;;;10.65;5.03;;;;;;;12.89;90.87;101014.72;5981038;23;20010;-84
2021/06/11 04:09:21;;;;;;;9.98;4.45;;;;;;;12.92;91.00;101019.75;5959803;23;20016;-84
2021/06/11 04:11:49;;;;;;;9.02;4.50;;;;;;;12.92;90.93;101038.63;5957085;23;20012;-84
2021/06/11 04:14:27;;;;;;;12.23;4.80;;;;;;;12.88;90.70;101026.50;5957701;23;20008;-84
2021/06/11 04:16:57;;;;;;;12.95;4.47;;;;;;;12.91;91.30;101037.81;5981744;23;20004;-84
2021/06/11 04:19:25;;;;;;;13.80;5.03;;;;;;;12.91;91.14;101028.84;5958522;23;20011;-85
2021/06/11 04:21:53;;;;;;;12.57;5.50;;;;;;;12.86;91.24;101024.03;5956964;23;20018;-84
2021/06/11 04:24:22;;;;;;;12.68;4.70;;;;;;;12.94;91.26;101032.03;5958331;23;20011;-83
2021/06/11 04:26:48;;;;;;;12.15;4.95;;;;;;;12.93;90.91;101034.91;5979813;23;20012;-83
2021/06/11 04:29:17;;;;;;;14.20;4.72;;;;;;;12.92;90.79;101044.88;5981521;23;20003;-85
2021/06/11 04:31:43;;;;;;;11.85;5.22;;;;;;;12.92;90.74;101044.88;5982301;23;20014;-83
2021/06/11 04:34:15;;;;;;;16.25;5.22;;;;;;;12.88;90.92;101040.00;5956380;23;20035;-83
2021/06/11 04:36:41;;;;;;;11.65;4.57;;;;;;;12.70;90.81;101007.97;5981005;23;20008;-86
2021/06/11 04:39:07;;;;;;;15.02;4.78;;;;;;;12.88;91.07;101029.22;5956482;23;20007;-84
2021/06/11 04:41:33;;;;;;;15.90;4.82;;;;;;;12.90;90.68;101028.00;5958999;23;20034;-84
2021/06/11 04:44:01;;;;;;;9.35;4.18;;;;;;;12.87;91.24;101022.16;5958382;23;20441;-84
2021/06/11 04:46:27;;;;;;;13.88;4.72;;;;;;;12.89;90.87;101025.50;5958580;23;20030;-83
2021/06/11 04:48:53;;;;;;;11.25;4.97;;;;;;;12.86;90.76;101023.16;5979968;23;20067;-84
2021/06/11 04:51:19;;;;;;;11.70;4.57;;;;;;;12.88;91.07;101034.63;5960998;23;20012;-83
2021/06/11 04:53:44;;;;;;;13.48;4.38;;;;;;;12.89;91.00;101036.31;5959114;23;20095;-84
2021/06/11 04:56:11;;;;;;;13.98;4.95;;;;;;;12.81;91.09;101033.66;5959970;23;20394;-85
2021/06/11 04:58:37;;;;;;;12.35;4.07;;;;;;;12.82;90.71;101035.38;5982879;23;20425;-85
2021/06/11 05:01:04;;;;;;;12.00;4.43;;;;;;;12.88;90.45;101042.72;5961297;23;20019;-83
2021/06/11 05:03:30;;;;;;;17.60;5.97;;;;;;;12.88;90.47;101045.41;5959285;23;20008;-84
2021/06/11 05:05:55;;;;;;;10.60;4.82;;;;;;;12.69;89.93;101020.63;5983802;23;20091;-84
2021/06/11 05:08:21;;;;;;;13.30;4.30;;;;;;;12.81;90.10;101049.84;5960896;23;20012;-85
2021/06/11 05:10:46;;;;;;;12.68;5.60;;;;;;;12.66;90.17;101021.00;5960978;23;20042;-84
2021/06/11 05:13:12;;;;;;;12.80;4.93;;;;;;;12.73;90.21;101048.94;5959585;23;20086;-83
2021/06/11 05:15:37;;;;;;;10.48;4.63;;;;;;;12.76;90.19;101048.56;5958796;23;20015;-82
2021/06/11 05:18:06;;;;;;;14.70;4.57;;;;;;;12.83;90.15;101058.63;5958183;23;20015;-84
2021/06/11 05:20:33;;;;;;;14.15;5.22;;;;;;;12.85;90.45;101064.66;5981151;23;20015;-84
2021/06/11 05:22:58;;;;;;;10.70;4.80;;;;;;;12.84;90.13;101057.63;5981992;23;20024;-83
2021/06/11 05:25:24;;;;;;;13.57;4.35;;;;;;;12.83;90.36;101067.53;5982028;23;20012;-83
2021/06/11 05:27:50;;;;;;;16.15;5.30;;;;;;;12.86;90.27;101069.03;5958314;23;20019;-83
2021/06/11 05:30:17;;;;;;;10.13;5.13;;;;;;;12.79;90.19;101062.72;5960427;23;20011;-84
2021/06/11 05:32:43;;;;;;;14.00;5.03;;;;;;;12.83;90.65;101061.31;5961191;23;20407;-85
2021/06/11 05:35:09;;;;;;;13.88;4.75;;;;;;;12.85;90.02;101072.78;5983315;23;20036;-85
2021/06/11 05:37:34;;;;;;;14.27;5.43;;;;;;;12.80;89.55;101067.91;5956799;23;20023;-82
2021/06/11 05:40:00;;;;;;;13.55;5.68;;;;;;;12.72;89.72;101052.63;5983090;23;20004;-85
2021/06/11 05:42:25;;;;;;;10.07;4.80;;;;;;;12.83;89.41;101064.84;5956793;23;20018;-84
2021/06/11 05:44:51;;;;;;;12.77;4.10;;;;;;;12.85;89.40;101062.81;5958113;23;20094;-84
2021/06/11 05:47:16;;;;;;;15.77;4.93;;;;;;;12.91;89.42;101072.88;5980829;23;20012;-84
2021/06/11 05:49:42;;;;;;;16.05;5.40;;;;;;;12.89;88.93;101074.94;5958232;23;20015;-85
2021/06/11 05:52:07;;;;;;;18.88;5.88;;;;;;;12.97;88.74;101087.50;5983746;23;20099;-83
2021/06/11 05:54:33;;;;;;;11.02;4.60;;;;;;;12.95;89.08;101081.44;5959511;23;20011;-83
2021/06/11 05:56:58;;;;;;;11.73;4.28;;;;;;;12.94;88.86;101077.09;5958921;23;20083;-85
2021/06/11 05:59:24;;;;;;;15.02;5.88;;;;;;;12.89;88.91;101085.72;5981219;23;20078;-84
2021/06/11 06:01:49;;;;;;;11.48;4.50;;;;;;;12.88;88.72;101080.50;5959333;23;20012;-84
2021/06/11 06:04:14;;;;;;;16.20;5.15;;;;;;;12.75;88.41;101064.91;5961989;23;19999;-85
2021/06/11 06:06:40;;;;;;;13.57;5.43;;;;;;;13.03;88.38;101107.53;5957940;23;20007;-85
2021/06/11 06:09:05;;;;;;;13.68;5.40;;;;;;;13.11;88.34;101104.75;5981245;23;20015;-82
2021/06/11 06:11:31;;;;;;;12.13;4.93;;;;;;;12.97;88.04;101072.16;5982118;23;20086;-85
2021/06/11 06:13:56;;;;;;;14.70;5.30;;;;;;;13.21;88.07;101097.22;5959261;23;20338;-85
2021/06/11 06:16:22;;;;;;;16.67;5.07;;;;;;;13.04;87.75;101055.19;5981267;23;20008;-83
2021/06/11 06:18:47;;;;;;;12.43;4.95;;;;;;;13.27;87.54;101091.09;5958471;23;20060;-84
2021/06/11 06:21:12;;;;;;;12.80;4.80;;;;;;;13.39;87.51;101107.69;5984567;23;20018;-82
2021/06/11 06:23:38;;;;;;;15.77;5.30;;;;;;;13.36;86.07;101098.09;5984053;23;20642;-83
2021/06/11 06:26:04;;;;;;;14.70;4.80;;;;;;;13.27;86.12;101083.00;5958931;23;20018;-83
2021/06/11 06:28:30;;;;;;;10.38;5.00;;;;;;;13.54;85.72;101111.22;5961842;23;20468;-85
2021/06/11 06:30:55;;;;;;;12.02;4.72;;;;;;;13.67;84.89;101112.44;5959659;23;20007;-85
2021/06/11 06:33:21;;;;;;;12.88;4.43;;;;;;;13.68;83.97;101116.81;5982658;23;20008;-84
2021/06/11 06:35:46;;;;;;;14.38;4.30;;;;;;;13.80;83.85;101123.41;5959013;23;20072;-84
2021/06/11 06:38:13;;;;;;;12.23;5.40;;;;;;;13.84;83.26;101120.16;5978911;23;20368;-84
2021/06/11 06:40:39;;;;;;;17.45;5.15;;;;;;;14.06;82.94;101121.03;5982040;23;20034;-84
2021/06/11 06:43:04;;;;;;;12.05;5.00;;;;;;;14.11;82.41;101111.53;5959604;23;20000;-84
2021/06/11 06:45:30;;;;;;;15.20;4.47;;;;;;;14.10;82.15;101113.38;5957938;23;20011;-84
2021/06/11 06:47:55;;;;;;;18.08;6.25;;;;;;;14.06;81.98;101115.63;5957351;23;20003;-84
2021/06/11 06:50:21;;;;;;;15.57;4.78;;;;;;;14.00;81.59;101111.00;5959306;23;20091;-83
2021/06/11 06:52:47;;;;;;;20.80;4.95;;;;;;;14.04;81.38;101123.09;5982064;23;20004;-83
2021/06/11 06:55:13;;;;;;;14.07;4.30;;;;;;;13.80;81.38;101099.09;5961219;23;20391;-84
2021/06/11 06:57:39;;;;;;;14.18;4.40;;;;;;;13.87;81.56;101134.34;5958210;23;20004;-84
2021/06/11 07:00:06;;;;;;;12.73;5.03;;;;;;;13.70;81.40;101118.28;5960478;23;20007;-84
2021/06/11 07:02:31;;;;;;;11.43;4.97;;;;;;;13.68;81.20;101131.19;5982746;23;20082;-83
2021/06/11 07:04:57;;;;;;;17.30;4.70;;;;;;;13.63;80.83;101137.13;5961029;23;20378;-83
2021/06/11 07:07:22;;;;;;;16.27;5.20;;;;;;;13.59;81.05;101143.09;5982831;23;20022;-84
2021/06/11 07:09:48;;;;;;;17.02;4.90;;;;;;;13.50;80.96;101136.94;5959540;23;20012;-83
2021/06/11 07:12:13;;;;;;;17.60;5.22;;;;;;;13.48;81.50;101144.38;5984191;23;19999;-85
2021/06/11 07:14:40;;;;;;;19.52;5.85;;;;;;;13.44;81.78;101143.06;5962639;23;20068;-84
2021/06/11 07:17:05;;;;;;;14.57;4.15;;;;;;;13.44;82.07;101143.06;5984227;23;20010;-84
2021/06/11 07:19:32;;;;;;;14.82;4.80;;;;;;;13.51;82.34;101153.97;5960935;23;20012;-85
2021/06/11 07:21:57;;;;;;;15.63;5.57;;;;;;;13.39;82.05;101126.59;5960511;23;20493;-84
2021/06/11 07:24:23;;;;;;;11.98;3.97;;;;;;;13.44;82.16;101134.13;5961709;23;20090;-84
2021/06/11 07:26:49;;;;;;;16.08;4.40;;;;;;;13.49;81.83;101146.06;5960541;23;20011;-83
2021/06/11 07:29:14;;;;;;;14.98;4.50;;;;;;;13.71;81.02;101143.47;5959103;23;20408;-78
2021/06/11 07:31:40;;;;;;;20.60;5.20;;;;;;;13.91;80.40;101149.97;5981930;23;20018;-78
2021/06/11 07:34:05;;;;;;;13.52;4.00;;;;;;;14.04;79.83;101142.00;5981617;23;20010;-78
2021/06/11 07:36:31;;;;;;;16.05;4.68;;;;;;;14.41;78.91;101158.25;5958386;23;20003;-78
2021/06/11 07:38:56;;;;;;;17.52;4.30;;;;;;;14.52;77.17;101157.75;5982904;23;20437;-85
2021/06/11 07:41:22;;;;;;;9.32;3.75;;;;;;;14.78;76.27;101162.63;5961760;23;20033;-83
2021/06/11 07:43:50;;;;;;;15.40;3.92;;;;;;;15.04;75.93;101162.03;5959964;23;20349;-83
2021/06/11 07:46:17;;;;;;;13.48;4.28;;;;;;;14.85;74.80;101160.84;5962490;23;20014;-85
2021/06/11 07:48:42;;;;;;;12.13;3.60;;;;;;;14.77;73.64;101162.84;5961820;23;20004;-84
2021/06/11 07:51:08;;;;;;;13.63;4.00;;;;;;;14.76;73.25;101169.25;5959345;23;20015;-83
2021/06/11 07:53:33;;;;;;;8.10;2.83;;;;;;;14.60;74.02;101168.47;5960353;23;20019;-85
2021/06/11 07:55:59;;;;;;;11.15;3.08;;;;;;;14.70;74.21;101177.13;5985453;23;20023;-85
2021/06/11 07:58:24;;;;;;;14.25;3.42;;;;;;;14.67;73.97;101172.09;5958988;23;20333;-84
2021/06/11 08:00:50;;;;;;;9.25;3.00;;;;;;;14.69;73.57;101182.75;5960962;23;20004;-86
2021/06/11 08:03:15;;;;;;;9.60;3.92;;;;;;;14.59;73.73;101180.34;5984451;23;20004;-85
2021/06/11 08:05:41;;;;;;;15.85;4.18;;;;;;;14.44;73.68;101179.50;5982095;23;20015;-84
2021/06/11 08:08:07;;;;;;;12.68;3.33;;;;;;;14.34;74.31;101163.59;5958879;23;20016;-84
2021/06/11 08:10:33;;;;;;;18.85;3.17;;;;;;;14.39;74.31;101185.50;5960403;23;20035;-83
2021/06/11 08:12:58;;;;;;;10.98;3.22;;;;;;;14.42;74.83;101195.97;5984663;23;20014;-84
2021/06/11 08:15:24;;;;;;;10.70;3.10;;;;;;;14.43;75.47;101192.22;5983528;23;20042;-85
2021/06/11 08:17:49;;;;;;;12.30;3.55;;;;;;;14.37;75.79;101182.16;5959257;23;20027;-84
2021/06/11 08:20:15;;;;;;;14.63;3.00;;;;;;;14.42;75.52;101189.69;5983450;23;20078;-85
2021/06/11 08:22:40;;;;;;;10.90;3.63;;;;;;;14.47;75.49;101190.81;5984468;23;20311;-83
2021/06/11 08:25:08;;;;;;;11.75;3.60;;;;;;;14.51;75.88;101191.25;5983114;23;20505;-85
2021/06/11 08:27:34;;;;;;;16.17;4.63;;;;;;;14.44;76.09;101188.47;5960498;23;20035;-84
2021/06/11 08:30:00;;;;;;;13.60;3.72;;;;;;;14.42;76.05;101197.81;5980395;23;20438;-77
2021/06/11 08:32:25;;;;;;;14.18;4.05;;;;;;;14.42;76.48;101204.06;5981841;23;20015;-78
2021/06/11 08:34:51;;;;;;;12.93;3.55;;;;;;;14.45;76.80;101214.50;5981237;23;20008;-78
2021/06/11 08:37:16;;;;;;;14.00;3.13;;;;;;;14.42;76.55;101198.66;5958314;23;20004;-77
2021/06/11 08:39:41;;;;;;;12.40;3.78;;;;;;;14.61;75.94;101218.06;5981080;23;20334;-77
2021/06/11 08:42:08;;;;;;;12.40;3.00;;;;;;;14.93;75.28;101232.97;5982008;23;20003;-78
2021/06/11 08:44:34;;;;;;;17.02;4.82;;;;;;;15.06;74.11;101227.69;6006840;23;20468;-78
2021/06/11 08:47:00;;;;;;;12.68;3.17;;;;;;;15.07;74.15;101217.69;5981904;23;20029;-78
2021/06/11 08:49:25;;;;;;;8.60;3.05;;;;;;;15.24;73.81;101231.78;6005563;23;20497;-78
2021/06/11 08:51:55;;;;;;;6.88;2.90;;;;;;;15.32;72.55;101224.38;5984711;23;20083;-85
2021/06/11 08:54:21;;;;;;;10.93;3.08;;;;;;;15.35;72.90;101242.13;5985748;23;20003;-85
2021/06/11 08:56:47;;;;;;;11.20;3.70;;;;;;;15.38;73.19;101237.13;5961308;23;20033;-84
2021/06/11 08:59:13;;;;;;;13.18;3.15;;;;;;;15.11;72.25;101222.53;5959729;23;20011;-83
2021/06/11 09:01:39;;;;;;;15.30;4.03;;;;;;;15.18;72.94;101242.34;5958809;23;20031;-83
2021/06/11 09:04:04;;;;;;;13.50;3.47;;;;;;;15.16;72.81;101249.00;5959526;23;20063;-84
2021/06/11 09:06:29;;;;;;;10.13;3.47;;;;;;;15.04;72.90;101250.56;5960274;23;20412;-85
2021/06/11 09:08:56;;;;;;;10.10;2.95;;;;;;;15.13;72.53;101258.34;5958668;23;20012;-84
2021/06/11 09:11:26;;;;;;;14.07;3.17;;;;;;;15.23;72.12;101260.75;5982684;23;20008;-83
2021/06/11 09:14:16;;;;;;;9.30;2.72;;;;;;;15.21;70.63;101253.84;5960730;23;20008;-85
2021/06/11 09:16:47;;;;;;;7.78;2.20;;;;;;;15.43;69.88;101257.38;6006531;23;20032;-79
2021/06/11 09:19:18;;;;;;;7.90;2.45;;;;;;;15.45;68.99;101280.53;5981051;23;20000;-78
2021/06/11 09:21:49;;;;;;;4.55;1.75;;;;;;;15.38;69.34;101282.38;5985771;23;20000;-79
2021/06/11 09:24:24;;;;;;;12.35;2.97;;;;;;;15.49;69.56;101281.00;5982313;23;20027;-78
2021/06/11 09:27:09;;;;;;;7.57;2.38;;;;;;;15.50;68.25;101274.53;5982398;23;20115;-79
2021/06/11 09:29:34;;;;;;;9.82;2.88;;;;;;;15.57;68.99;101280.84;6006959;23;20438;-78
2021/06/11 09:32:23;;;;;;;6.50;2.17;;;;;;;15.57;69.13;101280.84;6004379;23;20063;-78
2021/06/11 09:35:00;;;;;;;10.55;2.28;;;;;;;15.50;69.45;101280.78;5956274;23;20461;-77
2021/06/11 09:37:30;;;;;;;10.23;1.92;;;;;;;15.46;69.37;101300.38;6004104;23;20342;-77
2021/06/11 09:39:58;;;;;;;15.25;3.10;;;;;;;15.29;69.20;101300.59;5979465;23;20438;-77
2021/06/11 09:42:29;;;;;;;11.15;2.10;;;;;;;15.17;68.43;101305.72;5978677;23;20004;-77
2021/06/11 09:45:14;;;;;;;7.97;2.08;;;;;;;15.10;68.25;101307.50;5977298;23;20014;-78
2021/06/11 09:47:47;;;;;;;9.65;2.22;;;;;;;14.99;67.89;101299.88;5977745;23;20361;-77
2021/06/11 09:50:16;;;;;;;10.02;1.95;;;;;;;15.02;68.76;101306.78;6011593;23;20015;-78
2021/06/11 09:52:51;;;;;;;7.43;1.73;;;;;;;15.45;67.82;101320.34;5977311;23;20062;-77
2021/06/11 09:55:50;;;;;;;5.85;1.55;;;;;;;15.81;66.86;101326.53;6003004;23;20477;-79
2021/06/11 09:58:23;;;;;;;11.30;2.72;;;;;;;16.00;66.34;101318.75;6003930;23;19995;-78
2021/06/11 10:00:55;;;;;;;;;;;;;;;16.00;65.65;101330.44;5982773;23;20008;-78
2021/06/11 10:03:37;;;;;;;4.82;1.50;;;;;;;16.09;65.31;101328.44;5981668;23;19913;-78
2021/06/11 10:06:13;;;;;;;4.63;1.50;;;;;;;16.07;64.36;101325.06;6007830;23;20015;-78
2021/06/11 10:08:54;;;;;;;6.90;1.55;;;;;;;16.12;64.47;101325.31;5932849;23;20624;-78
2021/06/11 10:11:25;;;;;;;3.33;1.25;;;;;;;16.11;64.87;101326.31;6007891;23;20004;-77
2021/06/11 10:13:52;;;;;;;5.03;1.42;;;;;;;16.05;64.51;101324.41;5983658;23;20011;-77
2021/06/11 10:16:18;;;;;;;5.80;1.50;;;;;;;15.88;64.37;101329.31;5988967;23;20723;-78
2021/06/11 10:18:44;;;;;;;5.80;1.27;;;;;;;15.74;64.66;101327.50;5982230;23;20072;-78
2021/06/11 10:21:10;;;;;;;4.20;1.02;;;;;;;15.46;64.90;101333.72;6007822;23;20454;-78
2021/06/11 10:23:37;;;;;;;4.90;1.40;;;;;;;15.33;65.09;101326.28;5983225;23;20036;-78
2021/06/11 10:26:04;;;;;;;4.20;1.30;;;;;;;15.34;65.55;101325.25;5985000;23;20152;-78
2021/06/11 10:28:48;;;;;;;3.63;1.40;;;;;;;15.56;66.02;101333.41;6009370;23;20004;-78
2021/06/11 10:31:16;;;;;;;4.13;1.40;;;;;;;15.85;65.05;101336.97;5985321;23;20012;-80
2021/06/11 10:33:45;;;;;;;4.53;1.25;;;;;;;16.09;64.42;101331.13;5967488;23;20034;-79
2021/06/11 10:36:25;;;;;;;5.85;1.75;;;;;;;16.34;64.33;101336.91;6011680;23;20059;-79
2021/06/11 10:38:53;;;;;;;6.72;1.52;;;;;;;16.39;63.37;101337.16;6010837;23;20000;-79
2021/06/11 10:41:18;;;;;;;4.85;1.45;;;;;;;16.37;62.97;101352.81;5986902;23;20438;-78
2021/06/11 10:43:44;;;;;;;7.90;1.80;;;;;;;16.47;62.85;101350.56;6011925;23;20011;-79
2021/06/11 10:46:30;;;;;;;8.18;1.42;;;;;;;16.69;63.42;101343.16;5986735;23;20102;-79
2021/06/11 10:48:55;;;;;;;8.50;2.00;;;;;;;16.79;62.60;101339.25;5985401;23;20035;-79
2021/06/11 10:51:36;;;;;;;5.50;1.60;;;;;;;16.80;62.49;101347.19;6011178;23;20011;-79
2021/06/11 10:54:22;;;;;;;7.97;1.92;;;;;;;16.68;62.09;101348.81;5984843;23;20004;-78
2021/06/11 10:57:00;;;;;;;5.60;1.50;;;;;;;16.48;62.06;101352.25;6011682;23;20011;-79
2021/06/11 10:59:34;;;;;;;5.15;1.55;;;;;;;16.37;62.46;101339.22;6011203;23;20000;-78
2021/06/11 11:01:59;;;;;;;;;;;;;;;16.29;63.25;101341.28;6012430;23;20457;-79
2021/06/11 11:04:32;;;;;;;6.07;1.38;;;;;;;16.26;63.84;101351.47;6012521;23;19906;-79
2021/06/11 11:06:58;;;;;;;5.30;1.60;;;;;;;16.21;63.79;101347.69;6014285;23;20007;-79
2021/06/11 11:09:53;;;;;;;5.90;1.70;;;;;;;16.45;63.23;101351.81;5988742;23;20633;-79
2021/06/11 11:12:19;;;;;;;4.10;1.35;;;;;;;16.62;62.51;101344.19;5988741;23;20015;-79
2021/06/11 11:14:45;;;;;;;4.55;1.27;;;;;;;16.91;62.56;101338.50;5989689;23;20039;-79
2021/06/11 11:17:11;;;;;;;8.90;1.50;;;;;;;17.27;60.50;101347.34;5963911;23;20004;-79
2021/06/11 11:19:51;;;;;;;3.60;1.20;;;;;;;17.48;59.99;101341.75;6011917;23;20008;-78
2021/06/11 11:22:29;;;;;;;4.00;1.15;;;;;;;17.88;58.28;101343.69;5987544;23;20019;-78
2021/06/11 11:24:56;;;;;;;4.57;1.40;;;;;;;18.28;56.91;101333.56;5987787;23;20011;-79